Amana, Iowa
Current Conditions -  °F | °C
As of 3:52 PM on Monday 22 Dec 2014 (Local Time) from KCID Reporting Station
Haze Haze  
Wind Chill: 28°   Ceiling: 300
Heat Index: 36°   Visibility: 0.75mi
Dew Point: 36°   Wind: 12mph
Humidity: 100%   Direction: 110°ESE
Pressure: 29.54"   Gusts: NA
Location:  41.8°N, 91.87°W
Report Text: KCID 222152Z 11010KT 3/4SM BR OVC003 02/02 A2954 RMK AO2 SLP008 T00220022
Loading
Personal Weather Stations






























Interactive Weather Map New forecast layout! Learn more

10-Day Weather Forecast

Advertisements
Track Severe Weather on mobile